ADDS METAR Data

Data at: 1834 UTC 20 Jul 2018

METAR for:KHTO (East Hampton Arpt, NY, US)
Text:KHTO 201815Z AUTO 18008KT 10SM CLR 25/16 A3017 RMK AO2 T02470161
Temperature: 24.7°C ( 76°F)
Dewpoint: 16.1°C ( 61°F) [RH = 59%]
Pressure (altimeter):30.17 inches Hg (1021.8 mb)
Winds:from the S (180 degrees) at 9 MPH (8 knots; 4.1 m/s)
Visibility:10 or more sm (16+ km)
Ceiling:at least 12,000 feet AGL
Clouds:sky clear below 12,000 feet AGL
QC Flag:automated observation with no human augmentation